Time;durP1;ratioP1;P1;durP2;ratioP2;P2;SDS_P1;SDS_P2;PMS_P1;PMS_P2;Temp;Humidity;BMP_temperature;BMP_pressure;BME280_temperature;BME280_humidity;BME280_pressure;Samples;Min_cycle;Max_cycle;Signal;HPM_P1;HPM_P2
2022/05/28 00:02:02;;;;;;;14.18;2.70;;;;;;;13.10;64.11;100729.16;4940102;28;119349;-77
2022/05/28 00:04:29;;;;;;;13.55;2.90;;;;;;;13.10;64.60;100723.66;4954046;28;119574;-77
2022/05/28 00:06:54;;;;;;;14.77;2.30;;;;;;;13.12;64.25;100726.72;4952887;28;119376;-77
2022/05/28 00:09:20;;;;;;;15.25;2.50;;;;;;;13.11;64.60;100725.19;4954097;28;119429;-77
2022/05/28 00:11:51;;;;;;;11.68;2.85;;;;;;;13.05;64.83;100716.03;4951825;28;119165;-77
2022/05/28 00:14:17;;;;;;;10.45;2.72;;;;;;;13.09;64.98;100716.63;4934919;28;119929;-78
2022/05/28 00:16:46;;;;;;;17.02;2.95;;;;;;;13.09;64.46;100711.13;4951016;28;119748;-78
2022/05/28 00:19:11;;;;;;;14.73;3.08;;;;;;;13.11;64.46;100711.41;4953568;28;119515;-77
2022/05/28 00:21:37;;;;;;;16.02;3.17;;;;;;;13.11;64.58;100714.16;4933154;28;119225;-78
2022/05/28 00:24:03;;;;;;;13.55;3.38;;;;;;;13.13;64.99;100714.47;4934034;28;119668;-78
2022/05/28 00:26:29;;;;;;;19.02;3.08;;;;;;;13.14;64.94;100707.72;4936040;28;119702;-77
2022/05/28 00:28:54;;;;;;;13.43;2.90;;;;;;;13.15;65.00;100715.53;4936205;28;119700;-77
2022/05/28 00:31:20;;;;;;;15.18;3.30;;;;;;;13.16;64.85;100708.00;4938731;28;119307;-77
2022/05/28 00:33:46;;;;;;;16.52;3.05;;;;;;;13.12;65.42;100699.94;4953320;28;119717;-77
2022/05/28 00:36:13;;;;;;;16.95;3.35;;;;;;;13.17;65.28;100713.09;4971502;28;119616;-77
2022/05/28 00:38:41;;;;;;;20.95;3.33;;;;;;;13.18;64.94;100714.59;4938268;28;119989;-77
2022/05/28 00:41:07;;;;;;;15.75;3.22;;;;;;;13.17;65.23;100707.56;4952826;28;119719;-77
2022/05/28 00:43:33;;;;;;;23.27;3.33;;;;;;;13.18;64.60;100713.84;4935233;28;119721;-77
2022/05/28 00:46:03;;;;;;;17.25;3.38;;;;;;;13.10;64.80;100707.91;4927076;28;119858;-77
2022/05/28 00:48:32;;;;;;;18.00;3.30;;;;;;;13.17;64.84;100710.31;4929380;28;120055;-78
2022/05/28 00:51:08;;;;;;;15.85;2.85;;;;;;;13.19;64.99;100710.63;4944771;28;119384;-78
2022/05/28 00:53:34;;;;;;;16.85;3.40;;;;;;;13.19;64.83;100710.63;4954172;28;119312;-78
2022/05/28 00:56:04;;;;;;;17.58;3.30;;;;;;;13.20;64.32;100714.13;4953474;28;119817;-77
2022/05/28 00:58:31;;;;;;;15.07;3.10;;;;;;;13.18;64.45;100700.06;4920685;28;119378;-78
2022/05/28 01:00:57;;;;;;;20.75;3.20;;;;;;;13.20;64.55;100703.88;4953694;28;120364;-77
2022/05/28 01:03:26;;;;;;;17.42;3.38;;;;;;;13.21;64.43;100699.91;4956839;28;120754;-78
2022/05/28 01:06:01;;;;;;;18.67;3.33;;;;;;;13.23;64.55;100693.16;4936422;28;119348;-78
2022/05/28 01:08:52;;;;;;;19.80;3.42;;;;;;;13.22;64.02;100697.91;4953716;28;119942;-77
2022/05/28 01:11:40;;;;;;;18.70;3.47;;;;;;;13.19;64.42;100704.34;4909464;28;119620;-78
2022/05/28 01:14:17;;;;;;;19.23;3.50;;;;;;;13.19;63.88;100693.34;4952673;28;119629;-78
2022/05/28 01:16:46;;;;;;;18.10;3.50;;;;;;;13.12;64.02;100677.13;4935496;28;122508;-78
2022/05/28 01:19:17;;;;;;;16.35;3.50;;;;;;;13.18;63.81;100689.06;4953947;28;119258;-77
2022/05/28 01:21:55;;;;;;;19.88;3.47;;;;;;;13.18;63.75;100689.81;4948712;28;119816;-78
2022/05/28 01:25:01;;;;;;;14.88;3.53;;;;;;;13.16;63.71;100700.50;4937486;28;121774;-77
2022/05/28 01:27:52;;;;;;;21.40;3.55;;;;;;;13.13;63.44;100695.19;4924761;28;119383;-78
2022/05/28 01:30:18;;;;;;;13.43;3.60;;;;;;;13.12;63.28;100691.66;4953074;28;119893;-77
2022/05/28 01:32:50;;;;;;;14.02;3.35;;;;;;;13.12;63.37;100693.66;4931271;28;119735;-77
2022/05/28 01:35:21;;;;;;;13.27;3.22;;;;;;;13.13;63.05;100687.69;4919749;28;119410;-77
2022/05/28 01:37:49;;;;;;;17.67;3.67;;;;;;;13.13;63.69;100695.94;4941461;28;119816;-78
2022/05/28 01:40:17;;;;;;;15.15;3.50;;;;;;;13.15;63.65;100699.00;4934835;28;119553;-77
2022/05/28 01:42:47;;;;;;;18.95;3.40;;;;;;;13.17;64.00;100691.06;4952640;28;119353;-77
2022/05/28 01:45:15;;;;;;;14.45;3.30;;;;;;;13.20;63.19;100692.09;4935291;28;120654;-77
2022/05/28 01:47:43;;;;;;;14.23;3.47;;;;;;;13.15;63.11;100690.72;4935474;28;119600;-78
2022/05/28 01:50:13;;;;;;;16.90;3.40;;;;;;;13.19;63.84;100688.59;4956821;28;119639;-78
2022/05/28 01:52:41;;;;;;;16.63;3.15;;;;;;;13.21;63.19;100679.84;4919614;28;119994;-77
2022/05/28 01:55:15;;;;;;;18.20;3.45;;;;;;;13.18;63.54;100669.78;4935667;28;119592;-77
2022/05/28 01:57:41;;;;;;;12.10;3.15;;;;;;;13.20;63.88;100678.34;4952563;28;120050;-78
2022/05/28 02:00:11;;;;;;;15.98;3.60;;;;;;;13.17;63.80;100680.03;4952489;28;119388;-77
2022/05/28 02:02:38;;;;;;;15.50;3.33;;;;;;;13.17;63.63;100680.03;4934463;28;119308;-78
2022/05/28 02:05:04;;;;;;;19.17;3.60;;;;;;;13.20;63.58;100687.34;4918888;28;121201;-78
2022/05/28 02:07:30;;;;;;;12.90;3.88;;;;;;;13.18;63.70;100692.56;4952370;28;119551;-78
2022/05/28 02:10:12;;;;;;;14.35;3.35;;;;;;;13.19;63.66;100693.34;4919204;28;119307;-77
2022/05/28 02:12:56;;;;;;;14.73;3.28;;;;;;;13.20;63.58;100697.63;4955853;28;119539;-78
2022/05/28 02:15:34;;;;;;;17.35;4.20;;;;;;;13.19;62.73;100690.59;4935412;28;119569;-78
2022/05/28 02:18:31;;;;;;;16.00;3.75;;;;;;;13.23;63.12;100687.66;4952394;28;119184;-78
2022/05/28 02:21:08;;;;;;;13.50;3.30;;;;;;;13.24;63.43;100684.41;4952907;28;119499;-78
2022/05/28 02:23:46;;;;;;;14.52;3.35;;;;;;;13.28;63.09;100687.78;4934836;28;119254;-77
2022/05/28 02:26:37;;;;;;;16.27;3.67;;;;;;;13.26;63.07;100686.75;4952500;28;120363;-77
2022/05/28 02:29:04;;;;;;;16.38;3.60;;;;;;;13.27;63.32;100688.25;4926239;28;119908;-77
2022/05/28 02:31:33;;;;;;;20.13;3.45;;;;;;;13.28;63.44;100696.06;4934373;28;120029;-78
2022/05/28 02:34:02;;;;;;;16.33;3.30;;;;;;;13.26;63.15;100682.00;4937905;28;120029;-77
2022/05/28 02:36:31;;;;;;;16.10;3.38;;;;;;;13.24;62.98;100667.91;4946034;28;119893;-77
2022/05/28 02:38:59;;;;;;;12.73;3.08;;;;;;;13.32;63.46;100679.34;4941432;28;120180;-78
2022/05/28 02:41:25;;;;;;;16.08;3.45;;;;;;;13.28;63.24;100668.50;4930243;28;119744;-77
2022/05/28 02:43:50;;;;;;;13.93;3.08;;;;;;;13.30;62.54;100684.56;4929472;28;119285;-77
2022/05/28 02:46:16;;;;;;;12.35;2.92;;;;;;;13.33;62.78;100689.91;4929345;28;120131;-77
2022/05/28 02:48:42;;;;;;;14.13;3.65;;;;;;;13.34;62.83;100699.69;4945075;28;119987;-78
2022/05/28 02:51:11;;;;;;;14.27;3.33;;;;;;;13.36;62.94;100696.47;4944122;28;119303;-77
2022/05/28 02:53:37;;;;;;;13.60;3.42;;;;;;;13.39;63.24;100699.03;4909779;28;120151;-77
2022/05/28 02:56:04;;;;;;;14.30;3.63;;;;;;;13.41;63.67;100685.53;4938463;28;119591;-77
2022/05/28 02:58:30;;;;;;;17.45;3.83;;;;;;;13.40;63.31;100681.28;4932449;28;119200;-77
2022/05/28 03:00:56;;;;;;;14.23;3.60;;;;;;;13.39;63.58;100676.22;4932359;28;119655;-77
2022/05/28 03:03:28;;;;;;;14.90;3.53;;;;;;;13.46;63.08;100687.66;4914335;28;119463;-77
2022/05/28 03:05:53;;;;;;;16.73;3.50;;;;;;;13.41;62.70;100676.53;4932594;28;119228;-78
2022/05/28 03:08:19;;;;;;;15.90;3.70;;;;;;;13.42;62.58;100684.31;4932365;28;119510;-77
2022/05/28 03:10:45;;;;;;;15.80;3.55;;;;;;;13.46;63.29;100682.13;4921030;28;121310;-78
2022/05/28 03:13:11;;;;;;;13.70;3.60;;;;;;;13.43;63.20;100688.59;4932125;28;121779;-77
2022/05/28 03:15:38;;;;;;;18.17;3.72;;;;;;;13.49;63.06;100697.75;4931278;28;120336;-78
2022/05/28 03:18:07;;;;;;;14.60;3.47;;;;;;;13.46;62.94;100693.16;4954240;28;119699;-78
2022/05/28 03:20:38;;;;;;;16.73;3.47;;;;;;;13.43;62.44;100688.59;4949877;28;119650;-78
2022/05/28 03:23:04;;;;;;;16.92;3.90;;;;;;;13.44;62.49;100692.09;4929429;28;120247;-77
2022/05/28 03:25:30;;;;;;;19.08;3.80;;;;;;;13.41;62.13;100674.53;4913025;28;119346;-77
2022/05/28 03:27:56;;;;;;;15.38;3.40;;;;;;;13.51;62.40;100698.06;4914502;28;119480;-78
2022/05/28 03:30:22;;;;;;;19.13;3.60;;;;;;;13.57;62.32;100705.66;4939824;28;119903;-78
2022/05/28 03:32:50;;;;;;;12.48;3.50;;;;;;;13.44;62.36;100681.84;4950598;28;119982;-77
2022/05/28 03:35:16;;;;;;;17.70;3.88;;;;;;;13.60;61.92;100699.22;4934602;28;119308;-78
2022/05/28 03:37:42;;;;;;;18.65;3.50;;;;;;;13.59;62.00;100697.69;4917653;28;119447;-77
2022/05/28 03:40:08;;;;;;;14.82;3.13;;;;;;;13.62;62.20;100707.75;4955509;28;119332;-77
2022/05/28 03:42:34;;;;;;;18.88;3.95;;;;;;;13.64;61.58;100706.06;4950920;28;119809;-78
2022/05/28 03:44:59;;;;;;;17.40;3.65;;;;;;;13.66;61.61;100714.63;4917295;28;120661;-77
2022/05/28 03:47:25;;;;;;;15.35;3.80;;;;;;;13.70;62.02;100709.69;4935836;28;119881;-77
2022/05/28 03:49:51;;;;;;;15.68;3.70;;;;;;;13.74;61.94;100704.00;4955346;28;119395;-77
2022/05/28 03:52:16;;;;;;;15.90;3.75;;;;;;;13.76;62.16;100715.31;4936776;28;121064;-77
2022/05/28 03:54:45;;;;;;;20.50;3.83;;;;;;;13.75;61.73;100714.56;4937167;28;119401;-77
2022/05/28 03:57:29;;;;;;;13.38;3.50;;;;;;;13.78;62.80;100727.41;4937630;28;121075;-77
2022/05/28 03:59:58;;;;;;;16.17;3.72;;;;;;;13.80;62.15;100735.97;4954206;28;120288;-77
2022/05/28 04:02:25;;;;;;;14.85;3.67;;;;;;;13.83;61.54;100723.22;4947061;28;119392;-78
2022/05/28 04:04:51;;;;;;;18.27;3.70;;;;;;;13.85;61.66;100722.75;4954157;28;119440;-77
2022/05/28 04:07:17;;;;;;;17.27;4.15;;;;;;;13.85;61.67;100723.50;4938231;28;119757;-78
2022/05/28 04:09:44;;;;;;;17.67;4.20;;;;;;;13.74;60.82;100712.28;4954970;28;119344;-77
2022/05/28 04:12:10;;;;;;;17.30;3.97;;;;;;;13.89;61.53;100726.84;4954140;28;120168;-77
2022/05/28 04:14:39;;;;;;;18.05;3.67;;;;;;;13.88;61.27;100730.06;4954594;28;120252;-77
2022/05/28 04:17:05;;;;;;;15.63;3.85;;;;;;;13.94;61.06;100742.72;4955455;28;119290;-77
2022/05/28 04:19:31;;;;;;;20.05;3.83;;;;;;;13.90;60.71;100720.09;4951502;28;119859;-77
2022/05/28 04:21:56;;;;;;;17.15;3.75;;;;;;;13.93;60.03;100737.69;4917872;28;119393;-77
2022/05/28 04:24:22;;;;;;;21.70;4.68;;;;;;;13.98;60.23;100737.81;4938671;28;119858;-77
2022/05/28 04:26:48;;;;;;;21.88;3.97;;;;;;;14.01;60.22;100742.38;4917456;28;119570;-78
2022/05/28 04:29:13;;;;;;;21.90;4.50;;;;;;;14.02;60.66;100735.63;4935275;28;119321;-78
2022/05/28 04:31:39;;;;;;;22.17;4.65;;;;;;;14.07;60.32;100746.00;4933487;28;119836;-78
2022/05/28 04:34:05;;;;;;;16.20;3.92;;;;;;;14.02;59.81;100737.63;4952755;28;119472;-78
2022/05/28 04:36:31;;;;;;;17.98;3.88;;;;;;;14.08;59.92;100744.78;4953822;28;120063;-78
2022/05/28 04:38:56;;;;;;;23.63;4.40;;;;;;;14.13;59.87;100757.91;4954157;28;120522;-78
2022/05/28 04:41:22;;;;;;;28.27;5.18;;;;;;;14.10;59.52;100750.56;4937109;28;119569;-77
2022/05/28 04:43:51;;;;;;;24.38;4.50;;;;;;;14.19;59.16;100751.72;4958271;28;119957;-77
2022/05/28 04:46:20;;;;;;;19.42;4.00;;;;;;;14.17;59.10;100751.44;4954351;28;119163;-77
2022/05/28 04:48:46;;;;;;;21.88;4.82;;;;;;;14.14;59.84;100747.63;4920316;28;119331;-77
2022/05/28 04:51:12;;;;;;;18.13;4.75;;;;;;;14.22;58.80;100761.84;4945168;28;119340;-78
2022/05/28 04:53:41;;;;;;;23.52;4.45;;;;;;;14.21;58.74;100760.31;4951006;28;119389;-78
2022/05/28 04:56:07;;;;;;;21.30;5.00;;;;;;;14.20;59.70;100750.50;4936602;28;119667;-78
2022/05/28 04:58:32;;;;;;;26.08;5.18;;;;;;;14.27;58.68;100761.94;4953042;28;120149;-78
2022/05/28 05:01:01;;;;;;;20.88;4.70;;;;;;;14.31;58.58;100758.97;4944073;28;119866;-77
2022/05/28 05:03:27;;;;;;;22.77;4.35;;;;;;;14.32;58.18;100764.03;4933119;28;119828;-78
2022/05/28 05:05:52;;;;;;;18.08;4.55;;;;;;;14.34;57.61;100769.06;4938103;28;120180;-78
2022/05/28 05:08:18;;;;;;;27.27;5.07;;;;;;;14.35;56.81;100770.59;4953086;28;119900;-78
2022/05/28 05:10:46;;;;;;;25.58;4.70;;;;;;;14.35;57.41;100773.34;4953918;28;119371;-78
2022/05/28 05:13:12;;;;;;;27.13;5.20;;;;;;;14.38;57.42;100788.97;4936357;28;119881;-78
2022/05/28 05:15:38;;;;;;;24.38;4.93;;;;;;;14.39;57.91;100768.41;4954287;28;119803;-77
2022/05/28 05:18:05;;;;;;;26.75;5.25;;;;;;;14.41;58.05;100779.72;4936203;28;123050;-78
2022/05/28 05:20:30;;;;;;;22.13;4.63;;;;;;;14.49;57.76;100791.19;4935636;28;119663;-77
2022/05/28 05:22:57;;;;;;;23.73;4.95;;;;;;;14.52;56.92;100777.22;4952163;28;119336;-78
2022/05/28 05:25:23;;;;;;;23.05;4.57;;;;;;;14.50;56.24;100774.16;4952564;28;120202;-77
2022/05/28 05:27:49;;;;;;;21.38;4.45;;;;;;;14.50;56.21;100778.94;4940233;28;119906;-78
2022/05/28 05:30:18;;;;;;;21.48;4.40;;;;;;;14.55;55.02;100787.28;4951638;28;120239;-77
2022/05/28 05:32:43;;;;;;;23.45;5.05;;;;;;;14.52;55.67;100782.72;4934796;28;119830;-77
2022/05/28 05:35:10;;;;;;;23.73;4.07;;;;;;;14.61;56.40;100787.38;4936209;28;119547;-78
2022/05/28 05:37:36;;;;;;;19.73;4.43;;;;;;;14.60;56.35;100797.66;4952782;28;119428;-78
2022/05/28 05:40:03;;;;;;;24.52;4.68;;;;;;;14.61;56.12;100790.16;4919577;28;119360;-78
2022/05/28 05:42:32;;;;;;;23.60;4.57;;;;;;;14.58;56.56;100786.34;4935864;28;120255;-77
2022/05/28 05:44:57;;;;;;;24.17;5.25;;;;;;;14.63;55.70;100788.44;4919229;28;120681;-77
2022/05/28 05:47:23;;;;;;;20.38;4.22;;;;;;;14.72;56.49;100791.13;4920205;28;119382;-77
2022/05/28 05:49:50;;;;;;;20.42;4.35;;;;;;;14.76;56.66;100801.97;4956774;28;119574;-78
2022/05/28 05:52:16;;;;;;;25.42;4.70;;;;;;;14.75;55.97;100794.94;4953454;28;119610;-77
2022/05/28 05:54:42;;;;;;;22.02;5.13;;;;;;;14.79;55.97;100792.72;4953341;28;120037;-78
2022/05/28 05:57:08;;;;;;;19.75;4.07;;;;;;;14.82;55.97;100794.53;4952805;28;120314;-78
2022/05/28 05:59:34;;;;;;;23.38;4.20;;;;;;;14.84;57.24;100791.28;4949173;28;119424;-78
2022/05/28 06:02:00;;;;;;;24.40;5.10;;;;;;;14.86;55.68;100802.63;4952391;28;119237;-78
2022/05/28 06:04:26;;;;;;;22.38;4.00;;;;;;;14.94;55.05;100801.03;4935987;28;119445;-77
2022/05/28 06:06:52;;;;;;;27.48;4.38;;;;;;;14.91;54.94;100794.44;4953822;28;119256;-78
2022/05/28 06:09:17;;;;;;;17.88;3.95;;;;;;;14.98;55.66;100804.34;4943848;28;119213;-78
2022/05/28 06:11:43;;;;;;;22.00;4.22;;;;;;;14.99;55.76;100803.09;4939344;28;121460;-77
2022/05/28 06:14:09;;;;;;;28.15;4.95;;;;;;;15.00;55.71;100796.34;4920103;28;119356;-77
2022/05/28 06:16:35;;;;;;;23.77;4.43;;;;;;;15.04;55.58;100810.72;4952872;28;119677;-77
2022/05/28 06:19:02;;;;;;;30.33;4.30;;;;;;;15.04;55.74;100803.19;4953990;28;119838;-78
2022/05/28 06:21:28;;;;;;;18.27;4.32;;;;;;;15.08;55.15;100802.22;4918928;28;119715;-78
2022/05/28 06:23:54;;;;;;;22.52;4.82;;;;;;;15.08;55.78;100808.50;4931679;28;120453;-78
2022/05/28 06:26:19;;;;;;;21.88;4.40;;;;;;;15.08;55.33;100810.50;4916710;28;119319;-77
2022/05/28 06:28:45;;;;;;;27.42;5.15;;;;;;;15.09;55.78;100818.31;4935776;28;119817;-78
2022/05/28 06:31:13;;;;;;;23.08;4.70;;;;;;;15.14;55.86;100809.38;4934934;28;119551;-78
2022/05/28 06:33:40;;;;;;;19.40;4.80;;;;;;;15.21;56.68;100808.97;4938757;28;119895;-78
2022/05/28 06:36:07;;;;;;;23.23;4.57;;;;;;;15.26;56.56;100802.78;4918916;28;122372;-78
2022/05/28 06:38:33;;;;;;;23.25;4.50;;;;;;;15.32;57.02;100809.13;4935914;28;119276;-78
2022/05/28 06:41:02;;;;;;;23.73;5.32;;;;;;;15.36;56.23;100831.03;4953464;28;119291;-78
2022/05/28 06:43:34;;;;;;;20.50;4.30;;;;;;;15.29;55.86;100823.16;4952578;28;119568;-77
2022/05/28 06:46:01;;;;;;;23.90;4.72;;;;;;;15.28;55.79;100830.69;4919389;28;119540;-78
2022/05/28 06:48:27;;;;;;;25.08;4.40;;;;;;;15.23;56.33;100817.56;4919459;28;119851;-78
2022/05/28 06:51:02;;;;;;;24.83;4.55;;;;;;;15.32;56.84;100830.50;4918231;28;121963;-78
2022/05/28 06:53:36;;;;;;;23.60;4.50;;;;;;;15.35;56.67;100824.75;4917633;28;119303;-77
2022/05/28 06:56:03;;;;;;;19.20;4.85;;;;;;;15.30;56.20;100825.44;4952630;28;120145;-78
2022/05/28 06:58:29;;;;;;;23.17;4.53;;;;;;;15.24;56.64;100826.59;4935203;28;120381;-78
2022/05/28 07:00:55;;;;;;;28.10;4.80;;;;;;;15.17;57.08;100819.47;4918795;28;119903;-77
2022/05/28 07:03:24;;;;;;;20.88;4.68;;;;;;;15.20;57.13;100813.00;4933936;28;119944;-78
2022/05/28 07:05:50;;;;;;;25.20;5.05;;;;;;;15.28;56.99;100827.16;4953373;28;119240;-77
2022/05/28 07:08:16;;;;;;;23.08;5.30;;;;;;;15.28;57.00;100827.16;4935701;28;120743;-78
2022/05/28 07:10:45;;;;;;;20.92;4.35;;;;;;;15.40;56.76;100839.16;4934719;28;121482;-78
2022/05/28 07:13:11;;;;;;;28.65;4.90;;;;;;;15.40;55.87;100839.16;4935155;28;119594;-78
2022/05/28 07:15:38;;;;;;;24.25;4.53;;;;;;;15.37;55.62;100854.69;4922849;28;119723;-78
2022/05/28 07:18:04;;;;;;;23.85;4.30;;;;;;;15.35;56.80;100852.41;4952947;28;119430;-78
2022/05/28 07:20:30;;;;;;;22.55;4.70;;;;;;;15.31;56.44;100835.25;4935871;28;121129;-77
2022/05/28 07:22:56;;;;;;;23.17;4.72;;;;;;;15.36;56.22;100834.56;4937588;28;119740;-77
2022/05/28 07:25:22;;;;;;;30.27;5.18;;;;;;;15.45;56.56;100844.78;4956259;28;119293;-78
2022/05/28 07:27:47;;;;;;;26.17;5.07;;;;;;;15.52;56.28;100849.91;4938909;28;119786;-77
2022/05/28 07:30:14;;;;;;;21.25;4.35;;;;;;;15.57;56.73;100838.16;4937826;28;119470;-77
2022/05/28 07:32:40;;;;;;;26.30;4.72;;;;;;;15.64;56.62;100842.56;4954835;28;119862;-77
2022/05/28 07:35:07;;;;;;;21.58;4.60;;;;;;;15.65;56.79;100825.50;4955752;28;119329;-77
2022/05/28 07:37:35;;;;;;;21.67;4.70;;;;;;;15.77;56.32;100837.47;4958939;28;120129;-78
2022/05/28 07:40:01;;;;;;;21.63;4.75;;;;;;;15.72;55.81;100846.44;4956158;28;119888;-77
2022/05/28 07:42:27;;;;;;;22.95;4.47;;;;;;;15.70;55.96;100837.88;4937137;28;121902;-78
2022/05/28 07:44:53;;;;;;;22.83;4.72;;;;;;;15.63;55.89;100830.75;4937780;28;119925;-78
2022/05/28 07:47:18;;;;;;;22.30;4.32;;;;;;;15.62;55.42;100845.06;4955153;28;119654;-77
2022/05/28 07:49:44;;;;;;;27.73;4.95;;;;;;;15.53;55.54;100851.41;4955357;28;119492;-77
2022/05/28 07:52:10;;;;;;;25.27;4.53;;;;;;;15.46;55.23;100829.72;4955164;28;119273;-77
2022/05/28 07:54:36;;;;;;;27.52;5.28;;;;;;;15.52;55.95;100849.13;4922341;28;119401;-78
2022/05/28 07:57:02;;;;;;;19.23;4.40;;;;;;;15.54;55.01;100844.66;4921238;28;121722;-78
2022/05/28 07:59:29;;;;;;;22.83;5.13;;;;;;;15.56;55.61;100839.38;4959640;28;119355;-78
2022/05/28 08:01:57;;;;;;;21.98;4.43;;;;;;;15.65;55.67;100846.84;4953524;28;119921;-78
2022/05/28 08:04:24;;;;;;;25.95;5.05;;;;;;;15.71;55.89;100838.63;4921621;28;119828;-77
2022/05/28 08:06:49;;;;;;;28.35;4.60;;;;;;;15.70;55.62;100842.63;4953599;28;119749;-78
2022/05/28 08:09:15;;;;;;;26.10;4.75;;;;;;;15.73;55.50;100834.13;4937523;28;120127;-78
2022/05/28 08:11:41;;;;;;;21.98;4.38;;;;;;;15.80;54.71;100832.97;4954689;28;119751;-78
2022/05/28 08:14:07;;;;;;;20.40;4.32;;;;;;;15.85;55.29;100844.13;4937997;28;119571;-78
2022/05/28 08:16:33;;;;;;;19.23;4.35;;;;;;;15.90;55.42;100846.19;4937716;28;121828;-78
2022/05/28 08:18:59;;;;;;;21.80;4.15;;;;;;;15.95;54.82;100847.50;4938032;28;119735;-77
2022/05/28 08:24:09;;;;;;;;;;;;;;;15.93;54.38;100861.81;4956334;28;119696;-78
2022/05/28 08:26:36;;;;;;;18.35;4.18;;;;;;;15.88;54.29;100848.69;4938161;28;120580;-78
2022/05/28 08:29:02;;;;;;;17.17;4.28;;;;;;;15.92;54.65;100871.38;4937127;28;122136;-78
2022/05/28 08:31:29;;;;;;;20.73;3.65;;;;;;;15.91;54.96;100866.31;4954247;28;119507;-78
2022/05/28 08:33:56;;;;;;;23.85;4.10;;;;;;;15.90;55.70;100867.56;4954042;28;119675;-78
2022/05/28 08:36:22;;;;;;;20.20;4.05;;;;;;;15.96;55.45;100879.47;4936686;28;120906;-77
2022/05/28 08:38:48;;;;;;;21.58;4.72;;;;;;;15.99;55.65;100859.13;4937084;28;119452;-78
2022/05/28 08:41:24;;;;;;;23.75;4.20;;;;;;;16.01;54.92;100864.16;4938198;28;119395;-77
2022/05/28 08:43:58;;;;;;;20.13;4.72;;;;;;;15.99;54.86;100869.44;4947165;28;119581;-77
2022/05/28 08:46:26;;;;;;;24.42;4.63;;;;;;;16.05;54.54;100876.53;4955000;28;119326;-78
2022/05/28 08:48:55;;;;;;;22.58;3.95;;;;;;;16.08;54.69;100877.59;4954179;28;120228;-78
2022/05/28 08:51:33;;;;;;;15.25;3.42;;;;;;;16.09;55.18;100873.56;4937534;28;119655;-77
2022/05/28 08:54:05;;;;;;;22.52;4.47;;;;;;;16.20;55.80;100873.72;4933983;28;119530;-77
2022/05/28 08:56:33;;;;;;;20.17;3.90;;;;;;;16.21;55.39;100873.25;4917747;28;121290;-78
2022/05/28 08:59:23;;;;;;;18.88;4.30;;;;;;;16.33;56.08;100876.91;4944266;28;119577;-78
2022/05/28 09:01:50;;;;;;;16.58;3.63;;;;;;;16.45;55.13;100883.34;4954131;28;120567;-78
2022/05/28 09:04:39;;;;;;;22.92;4.10;;;;;;;16.50;55.12;100885.41;4915612;28;121261;-77
2022/05/28 09:07:09;;;;;;;22.75;4.60;;;;;;;16.47;54.81;100883.59;4950013;28;119275;-78
2022/05/28 09:09:40;;;;;;;19.88;4.45;;;;;;;16.41;55.10;100902.94;4936270;28;122176;-78
2022/05/28 09:12:16;;;;;;;24.73;4.13;;;;;;;16.33;55.27;100887.22;4954076;28;120042;-78
2022/05/28 09:14:42;;;;;;;15.90;3.78;;;;;;;16.34;55.87;100892.28;4954831;28;119705;-77
2022/05/28 09:17:28;;;;;;;22.65;4.88;;;;;;;16.36;56.39;100886.25;4936810;28;119813;-78
2022/05/28 09:20:10;;;;;;;24.42;4.75;;;;;;;16.44;55.51;100907.50;4949670;28;119475;-78
2022/05/28 09:22:38;;;;;;;;;;;;;;;16.47;55.93;100894.69;4948315;28;119335;-77
2022/05/28 09:25:05;;;;;;;19.00;3.83;;;;;;;16.54;55.91;100897.00;4945741;28;120124;-77
2022/05/28 09:27:51;;;;;;;22.10;4.57;;;;;;;16.68;56.48;100893.44;4941216;28;119553;-78
2022/05/28 09:30:25;;;;;;;20.02;3.92;;;;;;;16.78;56.13;100899.56;4932309;28;121445;-78
2022/05/28 09:33:08;;;;;;;20.75;4.47;;;;;;;16.82;55.50;100906.44;4940225;28;119823;-77
2022/05/28 09:35:44;;;;;;;28.33;4.78;;;;;;;16.82;55.45;100905.69;4937147;28;119509;-77
2022/05/28 09:38:22;;;;;;;18.98;4.38;;;;;;;16.76;55.03;100896.53;4935965;28;119602;-78
2022/05/28 09:40:58;;;;;;;20.95;3.78;;;;;;;16.74;55.12;100904.56;4942993;28;120003;-77
2022/05/28 09:43:25;;;;;;;20.27;4.47;;;;;;;16.71;55.08;100906.31;4920973;28;121527;-78
2022/05/28 09:46:21;;;;;;;19.92;4.32;;;;;;;16.68;54.70;100893.44;4953117;28;119505;-77
2022/05/28 09:48:58;;;;;;;20.52;4.32;;;;;;;16.69;54.97;100897.72;4928797;28;119498;-78
2022/05/28 09:51:27;;;;;;;23.67;4.35;;;;;;;16.73;55.30;100889.19;4934326;28;120092;-78
2022/05/28 09:54:16;;;;;;;18.58;4.30;;;;;;;16.69;54.80;100885.88;4926749;28;119632;-77
2022/05/28 09:56:50;;;;;;;22.55;4.28;;;;;;;16.78;55.15;100894.03;4940913;28;119757;-78
2022/05/28 09:59:27;;;;;;;20.50;4.65;;;;;;;16.80;55.10;100892.31;4958696;28;119921;-77
2022/05/28 10:01:57;;;;;;;27.63;5.90;;;;;;;16.87;54.71;100902.19;4903853;28;119836;-77
2022/05/28 10:04:30;;;;;;;26.02;4.90;;;;;;;16.81;55.63;100896.63;4938534;28;119391;-77
2022/05/28 10:07:02;;;;;;;24.73;5.07;;;;;;;16.85;54.93;100910.25;4926850;28;119985;-78
2022/05/28 10:09:34;;;;;;;24.92;4.22;;;;;;;16.79;54.22;100906.63;4938630;28;119203;-77
2022/05/28 10:12:14;;;;;;;24.75;4.60;;;;;;;16.66;53.32;100906.22;4947066;28;119277;-77
2022/05/28 10:14:40;;;;;;;20.92;4.03;;;;;;;16.58;54.15;100909.44;4924311;28;119481;-77
2022/05/28 10:17:06;;;;;;;18.58;4.30;;;;;;;16.49;54.09;100928.19;4944542;28;119441;-77
2022/05/28 10:19:40;;;;;;;24.38;4.65;;;;;;;16.42;55.00;100903.69;4938470;28;119655;-77
2022/05/28 10:22:10;;;;;;;;;;;;;;;16.44;55.31;100913.03;4941676;28;119463;-77
2022/05/28 10:24:50;;;;;;;23.42;4.53;;;;;;;16.48;55.32;100919.13;4911191;28;120712;-77
2022/05/28 10:27:33;;;;;;;22.13;4.57;;;;;;;16.52;55.45;100918.91;4944669;28;119823;-76
2022/05/28 10:30:04;;;;;;;31.00;4.60;;;;;;;16.53;55.37;100918.41;4909702;28;119885;-77
2022/05/28 10:32:48;;;;;;;22.65;4.18;;;;;;;16.62;55.08;100917.53;4937397;28;120241;-85
2022/05/28 10:35:19;;;;;;;23.15;4.45;;;;;;;16.66;54.69;100925.63;4910665;28;121060;-82
2022/05/28 10:37:45;;;;;;;21.23;4.63;;;;;;;16.67;55.06;100916.09;4907028;28;120048;-82
2022/05/28 10:40:16;;;;;;;19.67;4.85;;;;;;;16.67;54.78;100916.84;4881828;28;121880;-82
2022/05/28 10:42:45;;;;;;;;;;;;;;;16.63;54.95;100907.19;4920104;28;119447;-77
2022/05/28 10:45:18;;;;;;;20.92;4.07;;;;;;;16.56;55.01;100906.38;4946034;28;119764;-81
2022/05/28 10:48:08;;;;;;;25.25;4.50;;;;;;;16.60;55.08;100916.50;4917202;28;119408;-83
2022/05/28 10:50:58;;;;;;;17.63;3.88;;;;;;;16.58;54.82;100916.97;4917758;28;119791;-82
2022/05/28 10:53:32;;;;;;;21.25;4.32;;;;;;;16.59;54.54;100921.25;4939994;28;120216;-76
2022/05/28 10:56:33;;;;;;;21.85;4.43;;;;;;;16.64;54.39;100925.34;4945128;28;119940;-76
2022/05/28 10:59:17;;;;;;;24.63;4.10;;;;;;;16.64;54.26;100911.50;4938551;28;119786;-76
2022/05/28 11:01:54;;;;;;;17.20;4.25;;;;;;;16.65;54.99;100918.56;4949438;28;120201;-76
2022/05/28 11:05:04;;;;;;;20.75;4.80;;;;;;;16.63;54.96;100915.50;4945044;28;119644;-84
2022/05/28 11:07:45;;;;;;;20.27;3.83;;;;;;;16.69;54.57;100925.44;4936777;28;119977;-81
2022/05/28 11:10:19;;;;;;;20.60;3.92;;;;;;;16.72;54.83;100918.16;4935780;28;119904;-81
2022/05/28 11:12:57;;;;;;;24.30;4.63;;;;;;;16.76;54.41;100919.44;4955057;28;120030;-81
2022/05/28 11:15:35;;;;;;;20.02;4.85;;;;;;;16.79;54.58;100931.56;4928063;28;119538;-76
2022/05/28 11:18:17;;;;;;;20.08;4.60;;;;;;;16.81;54.72;100929.09;4935098;28;121084;-81
2022/05/28 11:21:14;;;;;;;18.05;4.10;;;;;;;16.84;54.10;100928.13;4930330;28;120048;-85
2022/05/28 11:24:01;;;;;;;21.75;4.20;;;;;;;16.84;53.99;100925.34;4961147;28;119356;-76
2022/05/28 11:26:36;;;;;;;18.50;3.50;;;;;;;16.86;54.09;100947.78;4935870;28;119771;-83